sensor_id;sensor_type;location;lat;lon;timestamp;pressure;altitude;pressure_sealevel;temperature;humidity
72892;BME280;61032;50.782;6.818;2023-02-01T00:00:42;101040.69;;;7.28;80.33
72892;BME280;61032;50.782;6.818;2023-02-01T00:01:42;101044.41;;;7.18;80.00
72892;BME280;61032;50.782;6.818;2023-02-01T00:02:42;101049.69;;;7.09;80.63
72892;BME280;61032;50.782;6.818;2023-02-01T00:03:43;101045.03;;;7.10;80.31
72892;BME280;61032;50.782;6.818;2023-02-01T00:04:43;101052.38;;;7.14;80.51
72892;BME280;61032;50.782;6.818;2023-02-01T00:05:44;101047.13;;;7.18;80.37
72892;BME280;61032;50.782;6.818;2023-02-01T00:06:44;101047.66;;;7.20;80.09
72892;BME280;61032;50.782;6.818;2023-02-01T00:07:47;101042.47;;;7.18;79.64
72892;BME280;61032;50.782;6.818;2023-02-01T00:08:52;101042.41;;;7.23;79.76
72892;BME280;61032;50.782;6.818;2023-02-01T00:09:52;101040.91;;;7.31;78.70
72892;BME280;61032;50.782;6.818;2023-02-01T00:11:03;101039.91;;;7.27;78.52
72892;BME280;61032;50.782;6.818;2023-02-01T00:12:04;101043.81;;;7.21;78.75
72892;BME280;61032;50.782;6.818;2023-02-01T00:13:04;101044.91;;;7.20;78.96
72892;BME280;61032;50.782;6.818;2023-02-01T00:14:05;101042.25;;;7.15;78.85
72892;BME280;61032;50.782;6.818;2023-02-01T00:15:06;101045.84;;;7.10;79.12
72892;BME280;61032;50.782;6.818;2023-02-01T00:16:12;101040.63;;;7.14;79.41
72892;BME280;61032;50.782;6.818;2023-02-01T00:17:13;101046.16;;;7.09;78.78
72892;BME280;61032;50.782;6.818;2023-02-01T00:18:13;101043.00;;;7.20;78.63
72892;BME280;61032;50.782;6.818;2023-02-01T00:19:17;101028.88;;;7.13;77.60
72892;BME280;61032;50.782;6.818;2023-02-01T00:20:18;101039.56;;;7.10;77.74
72892;BME280;61032;50.782;6.818;2023-02-01T00:21:20;101033.28;;;7.09;77.68
72892;BME280;61032;50.782;6.818;2023-02-01T00:22:20;101040.47;;;7.05;77.83
72892;BME280;61032;50.782;6.818;2023-02-01T00:23:20;101041.50;;;7.09;77.77
72892;BME280;61032;50.782;6.818;2023-02-01T00:24:21;101045.72;;;7.02;77.05
72892;BME280;61032;50.782;6.818;2023-02-01T00:25:21;101029.94;;;6.94;77.45
72892;BME280;61032;50.782;6.818;2023-02-01T00:27:28;101037.03;;;6.95;76.62
72892;BME280;61032;50.782;6.818;2023-02-01T00:28:28;101035.66;;;6.97;76.52
72892;BME280;61032;50.782;6.818;2023-02-01T00:29:28;101040.34;;;6.92;75.85
72892;BME280;61032;50.782;6.818;2023-02-01T00:30:29;101030.00;;;6.88;75.51
72892;BME280;61032;50.782;6.818;2023-02-01T00:31:29;101028.31;;;6.93;75.85
72892;BME280;61032;50.782;6.818;2023-02-01T00:32:29;101038.56;;;7.06;75.13
72892;BME280;61032;50.782;6.818;2023-02-01T00:33:32;101035.34;;;6.99;75.06
72892;BME280;61032;50.782;6.818;2023-02-01T00:34:33;101039.31;;;6.87;74.76
72892;BME280;61032;50.782;6.818;2023-02-01T00:35:34;101037.69;;;6.86;74.17
72892;BME280;61032;50.782;6.818;2023-02-01T00:36:35;101035.03;;;6.81;74.21
72892;BME280;61032;50.782;6.818;2023-02-01T00:37:35;101034.75;;;6.83;74.05
72892;BME280;61032;50.782;6.818;2023-02-01T00:38:38;101031.34;;;6.91;73.51
72892;BME280;61032;50.782;6.818;2023-02-01T00:39:39;101032.38;;;6.95;73.17
72892;BME280;61032;50.782;6.818;2023-02-01T00:40:47;101034.84;;;6.97;73.29
72892;BME280;61032;50.782;6.818;2023-02-01T00:41:47;101035.19;;;6.90;73.70
72892;BME280;61032;50.782;6.818;2023-02-01T00:42:48;101021.91;;;6.83;73.67
72892;BME280;61032;50.782;6.818;2023-02-01T00:43:53;101029.09;;;6.74;74.08
72892;BME280;61032;50.782;6.818;2023-02-01T00:44:54;101035.59;;;6.78;73.77
72892;BME280;61032;50.782;6.818;2023-02-01T00:45:54;101030.16;;;6.78;73.82
72892;BME280;61032;50.782;6.818;2023-02-01T00:46:55;101038.00;;;6.85;74.06
72892;BME280;61032;50.782;6.818;2023-02-01T00:47:56;101044.72;;;6.93;73.74
72892;BME280;61032;50.782;6.818;2023-02-01T00:48:58;101039.84;;;6.89;73.38
72892;BME280;61032;50.782;6.818;2023-02-01T00:50:00;101037.38;;;6.88;73.32
72892;BME280;61032;50.782;6.818;2023-02-01T00:51:07;101041.22;;;6.87;73.89
72892;BME280;61032;50.782;6.818;2023-02-01T00:52:07;101041.16;;;6.92;73.18
72892;BME280;61032;50.782;6.818;2023-02-01T00:53:09;101035.34;;;6.99;73.22
72892;BME280;61032;50.782;6.818;2023-02-01T00:54:09;101046.41;;;6.88;73.60
72892;BME280;61032;50.782;6.818;2023-02-01T00:55:16;101041.59;;;6.80;73.39
72892;BME280;61032;50.782;6.818;2023-02-01T00:56:17;101035.91;;;6.77;73.97
72892;BME280;61032;50.782;6.818;2023-02-01T00:57:17;101032.81;;;6.83;73.69
72892;BME280;61032;50.782;6.818;2023-02-01T00:58:18;101033.34;;;6.85;72.76
72892;BME280;61032;50.782;6.818;2023-02-01T00:59:18;101033.84;;;6.87;73.58
72892;BME280;61032;50.782;6.818;2023-02-01T01:00:19;101039.25;;;6.93;73.44
72892;BME280;61032;50.782;6.818;2023-02-01T01:01:24;101039.25;;;6.93;73.40
72892;BME280;61032;50.782;6.818;2023-02-01T01:02:26;101042.50;;;6.95;73.42
72892;BME280;61032;50.782;6.818;2023-02-01T01:03:27;101037.03;;;6.95;73.58
72892;BME280;61032;50.782;6.818;2023-02-01T01:04:29;101038.91;;;6.99;73.42
72892;BME280;61032;50.782;6.818;2023-02-01T01:05:29;101040.00;;;6.98;73.02
72892;BME280;61032;50.782;6.818;2023-02-01T01:06:31;101034.38;;;6.89;73.29
72892;BME280;61032;50.782;6.818;2023-02-01T01:07:32;101034.50;;;6.79;73.56
72892;BME280;61032;50.782;6.818;2023-02-01T01:08:33;101033.84;;;6.87;73.79
72892;BME280;61032;50.782;6.818;2023-02-01T01:09:34;101033.34;;;6.85;73.55
72892;BME280;61032;50.782;6.818;2023-02-01T01:10:34;101026.69;;;6.92;73.49
72892;BME280;61032;50.782;6.818;2023-02-01T01:11:37;101027.16;;;6.99;73.40
72892;BME280;61032;50.782;6.818;2023-02-01T01:12:37;101011.03;;;6.78;73.28
72892;BME280;61032;50.782;6.818;2023-02-01T01:13:38;101014.91;;;6.72;74.07
72892;BME280;61032;50.782;6.818;2023-02-01T01:14:39;101007.47;;;6.78;73.68
72892;BME280;61032;50.782;6.818;2023-02-01T01:15:39;100998.47;;;6.77;74.24
72892;BME280;61032;50.782;6.818;2023-02-01T01:16:40;100994.91;;;6.77;74.38
72892;BME280;61032;50.782;6.818;2023-02-01T01:17:40;100988.28;;;6.83;74.17
72892;BME280;61032;50.782;6.818;2023-02-01T01:18:41;100988.00;;;6.84;74.41
72892;BME280;61032;50.782;6.818;2023-02-01T01:19:41;100986.81;;;6.90;74.01
72892;BME280;61032;50.782;6.818;2023-02-01T01:20:41;100986.56;;;6.87;73.89
72892;BME280;61032;50.782;6.818;2023-02-01T01:21:42;100982.53;;;6.84;73.79
72892;BME280;61032;50.782;6.818;2023-02-01T01:22:42;100981.09;;;6.87;74.49
72892;BME280;61032;50.782;6.818;2023-02-01T01:23:44;100986.00;;;6.90;74.04
72892;BME280;61032;50.782;6.818;2023-02-01T01:24:45;100980.22;;;6.92;74.15
72892;BME280;61032;50.782;6.818;2023-02-01T01:25:45;100983.53;;;6.88;74.00
72892;BME280;61032;50.782;6.818;2023-02-01T01:26:45;100976.44;;;6.69;74.82
72892;BME280;61032;50.782;6.818;2023-02-01T01:27:46;100979.34;;;6.77;74.54
72892;BME280;61032;50.782;6.818;2023-02-01T01:28:47;100981.03;;;6.73;74.48
72892;BME280;61032;50.782;6.818;2023-02-01T01:29:48;100990.72;;;6.84;73.97
72892;BME280;61032;50.782;6.818;2023-02-01T01:30:48;100985.47;;;6.88;73.87
72892;BME280;61032;50.782;6.818;2023-02-01T01:31:48;100993.66;;;6.88;74.36
72892;BME280;61032;50.782;6.818;2023-02-01T01:32:49;100992.25;;;6.90;73.79
72892;BME280;61032;50.782;6.818;2023-02-01T01:33:54;101000.69;;;6.94;73.02
72892;BME280;61032;50.782;6.818;2023-02-01T01:34:56;101001.44;;;7.00;72.91
72892;BME280;61032;50.782;6.818;2023-02-01T01:35:56;101002.63;;;6.94;72.84
72892;BME280;61032;50.782;6.818;2023-02-01T01:36:56;101007.50;;;6.97;72.98
72892;BME280;61032;50.782;6.818;2023-02-01T01:37:58;101016.81;;;6.96;73.41
72892;BME280;61032;50.782;6.818;2023-02-01T01:39:00;101009.72;;;6.95;73.15
72892;BME280;61032;50.782;6.818;2023-02-01T01:40:00;101012.44;;;6.95;72.85
72892;BME280;61032;50.782;6.818;2023-02-01T01:41:01;101014.06;;;6.96;73.02
72892;BME280;61032;50.782;6.818;2023-02-01T01:42:01;101014.81;;;7.01;72.85
72892;BME280;61032;50.782;6.818;2023-02-01T01:43:02;101022.22;;;7.01;72.54
72892;BME280;61032;50.782;6.818;2023-02-01T01:44:06;101033.09;;;7.06;72.89
72892;BME280;61032;50.782;6.818;2023-02-01T01:45:34;101027.63;;;7.06;72.57
72892;BME280;61032;50.782;6.818;2023-02-01T01:46:35;101028.31;;;6.93;73.07
72892;BME280;61032;50.782;6.818;2023-02-01T01:47:48;101029.72;;;6.90;73.37
72892;BME280;61032;50.782;6.818;2023-02-01T01:50:10;101034.59;;;6.93;73.24
72892;BME280;61032;50.782;6.818;2023-02-01T01:51:13;101031.88;;;6.93;73.66
72892;BME280;61032;50.782;6.818;2023-02-01T01:52:17;101034.59;;;6.93;74.00
72892;BME280;61032;50.782;6.818;2023-02-01T01:53:31;101025.34;;;6.89;73.29
72892;BME280;61032;50.782;6.818;2023-02-01T01:54:43;101031.91;;;6.88;73.19
72892;BME280;61032;50.782;6.818;2023-02-01T01:55:45;101025.66;;;6.87;73.82
72892;BME280;61032;50.782;6.818;2023-02-01T01:56:51;101022.72;;;6.84;74.03
72892;BME280;61032;50.782;6.818;2023-02-01T01:58:04;101015.44;;;6.74;73.67
72892;BME280;61032;50.782;6.818;2023-02-01T01:59:07;101014.16;;;6.67;74.33
72892;BME280;61032;50.782;6.818;2023-02-01T02:00:14;101004.50;;;6.74;74.28
72892;BME280;61032;50.782;6.818;2023-02-01T02:01:15;101010.19;;;6.78;74.83
72892;BME280;61032;50.782;6.818;2023-02-01T02:02:17;101012.06;;;6.82;74.56
72892;BME280;61032;50.782;6.818;2023-02-01T02:03:20;101009.25;;;6.87;73.90
72892;BME280;61032;50.782;6.818;2023-02-01T02:04:22;101002.09;;;6.92;74.19
72892;BME280;61032;50.782;6.818;2023-02-01T02:05:23;101004.25;;;6.95;74.23
72892;BME280;61032;50.782;6.818;2023-02-01T02:07:35;101000.75;;;6.89;74.12
72892;BME280;61032;50.782;6.818;2023-02-01T02:08:36;101000.41;;;6.96;74.13
72892;BME280;61032;50.782;6.818;2023-02-01T02:09:37;100994.28;;;6.85;74.74
72892;BME280;61032;50.782;6.818;2023-02-01T02:10:38;101001.84;;;6.88;74.35
72892;BME280;61032;50.782;6.818;2023-02-01T02:11:58;100991.22;;;6.86;74.43
72892;BME280;61032;50.782;6.818;2023-02-01T02:12:58;100994.63;;;6.78;75.02
72892;BME280;61032;50.782;6.818;2023-02-01T02:13:59;100991.22;;;6.86;75.05
72892;BME280;61032;50.782;6.818;2023-02-01T02:15:00;100998.13;;;6.84;74.79
72892;BME280;61032;50.782;6.818;2023-02-01T02:16:16;100998.31;;;6.87;75.08
72892;BME280;61032;50.782;6.818;2023-02-01T02:34:40;100988.44;;;7.10;74.17
72892;BME280;61032;50.782;6.818;2023-02-01T02:36:29;100984.47;;;7.03;74.29
72892;BME280;61032;50.782;6.818;2023-02-01T02:39:59;100986.22;;;6.94;75.03
72892;BME280;61032;50.782;6.818;2023-02-01T02:41:16;100990.59;;;6.95;74.42
72892;BME280;61032;50.782;6.818;2023-02-01T02:46:16;100982.97;;;6.92;74.27
72892;BME280;61032;50.782;6.818;2023-02-01T02:47:47;100985.06;;;7.00;74.02
72892;BME280;61032;50.782;6.818;2023-02-01T02:51:44;100979.28;;;6.82;74.14
72892;BME280;61032;50.782;6.818;2023-02-01T02:53:13;100981.44;;;6.85;74.13
72892;BME280;61032;50.782;6.818;2023-02-01T02:54:37;100982.00;;;6.82;73.76
72892;BME280;61032;50.782;6.818;2023-02-01T02:55:51;100981.44;;;6.85;73.50
72892;BME280;61032;50.782;6.818;2023-02-01T02:56:53;100970.50;;;6.85;73.97
72892;BME280;61032;50.782;6.818;2023-02-01T02:58:13;100974.13;;;7.00;73.30
72892;BME280;61032;50.782;6.818;2023-02-01T02:59:38;100967.16;;;6.88;73.54
72892;BME280;61032;50.782;6.818;2023-02-01T03:01:00;100968.34;;;6.82;73.87
72892;BME280;61032;50.782;6.818;2023-02-01T03:02:20;100964.22;;;6.85;73.81
72892;BME280;61032;50.782;6.818;2023-02-01T03:03:40;100966.72;;;6.81;73.77
72892;BME280;61032;50.782;6.818;2023-02-01T03:05:00;100960.88;;;6.88;73.43
72892;BME280;61032;50.782;6.818;2023-02-01T03:06:01;100961.63;;;6.94;73.83
72892;BME280;61032;50.782;6.818;2023-02-01T03:08:44;100954.59;;;6.87;73.54
72892;BME280;61032;50.782;6.818;2023-02-01T03:09:47;100955.50;;;6.83;73.25
72892;BME280;61032;50.782;6.818;2023-02-01T03:11:12;100951.84;;;6.87;73.58
72892;BME280;61032;50.782;6.818;2023-02-01T03:12:14;100952.53;;;6.79;73.92
72892;BME280;61032;50.782;6.818;2023-02-01T03:14:56;100941.97;;;6.92;73.79
72892;BME280;61032;50.782;6.818;2023-02-01T03:16:02;100952.03;;;6.96;73.94
72892;BME280;61032;50.782;6.818;2023-02-01T03:17:11;100961.56;;;6.99;73.63
72892;BME280;61032;50.782;6.818;2023-02-01T03:18:18;100949.22;;;7.01;73.65
72892;BME280;61032;50.782;6.818;2023-02-01T03:19:22;100959.28;;;7.06;73.27
72892;BME280;61032;50.782;6.818;2023-02-01T03:20:27;100956.56;;;7.06;73.29
72892;BME280;61032;50.782;6.818;2023-02-01T03:22:33;100947.81;;;7.04;73.27
72892;BME280;61032;50.782;6.818;2023-02-01T03:23:36;100950.47;;;7.09;73.29
72892;BME280;61032;50.782;6.818;2023-02-01T03:24:45;100950.63;;;6.99;74.48
72892;BME280;61032;50.782;6.818;2023-02-01T03:25:48;100951.72;;;6.98;73.63
72892;BME280;61032;50.782;6.818;2023-02-01T03:26:57;100953.88;;;7.01;73.62
72892;BME280;61032;50.782;6.818;2023-02-01T03:28:04;100962.31;;;7.04;73.58
72892;BME280;61032;50.782;6.818;2023-02-01T03:29:11;100960.44;;;7.00;73.32
72892;BME280;61032;50.782;6.818;2023-02-01T03:30:27;100958.16;;;7.07;73.01
72892;BME280;61032;50.782;6.818;2023-02-01T03:31:28;100964.44;;;7.07;73.10
72892;BME280;61032;50.782;6.818;2023-02-01T03:32:29;100958.06;;;7.12;72.67
72892;BME280;61032;50.782;6.818;2023-02-01T03:33:50;100960.38;;;7.05;72.61
72892;BME280;61032;50.782;6.818;2023-02-01T03:34:51;100963.13;;;7.05;73.02
72892;BME280;61032;50.782;6.818;2023-02-01T03:36:15;100960.97;;;7.02;73.16
72892;BME280;61032;50.782;6.818;2023-02-01T03:37:27;100959.03;;;6.83;73.44
72892;BME280;61032;50.782;6.818;2023-02-01T03:38:35;100969.34;;;6.86;72.82
72892;BME280;61032;50.782;6.818;2023-02-01T03:39:53;100966.63;;;6.86;73.31
72892;BME280;61032;50.782;6.818;2023-02-01T03:41:11;100960.75;;;6.98;72.44
72892;BME280;61032;50.782;6.818;2023-02-01T03:42:38;100959.63;;;6.99;72.30
72892;BME280;61032;50.782;6.818;2023-02-01T03:44:06;100956.50;;;6.87;73.20
72892;BME280;61032;50.782;6.818;2023-02-01T03:46:28;100965.63;;;6.82;73.54
72892;BME280;61032;50.782;6.818;2023-02-01T03:47:36;100957.78;;;6.76;73.77
72892;BME280;61032;50.782;6.818;2023-02-01T03:48:39;100973.69;;;6.69;73.46
72892;BME280;61032;50.782;6.818;2023-02-01T03:50:06;100965.22;;;6.70;74.61
72892;BME280;61032;50.782;6.818;2023-02-01T03:51:06;100963.81;;;6.73;74.23
72892;BME280;61032;50.782;6.818;2023-02-01T03:52:14;100964.41;;;6.70;74.05
72892;BME280;61032;50.782;6.818;2023-02-01T03:53:20;100966.31;;;6.69;74.24
72892;BME280;61032;50.782;6.818;2023-02-01T03:54:24;100962.13;;;6.77;74.18
72892;BME280;61032;50.782;6.818;2023-02-01T03:55:27;100959.16;;;6.73;73.88
72892;BME280;61032;50.782;6.818;2023-02-01T03:56:31;100952.06;;;6.72;73.89
72892;BME280;61032;50.782;6.818;2023-02-01T03:57:46;100951.50;;;6.75;73.93
72892;BME280;61032;50.782;6.818;2023-02-01T03:58:55;100940.56;;;6.75;73.45
72892;BME280;61032;50.782;6.818;2023-02-01T04:00:30;100944.09;;;6.76;73.68
72892;BME280;61032;50.782;6.818;2023-02-01T04:01:30;100940.81;;;6.55;74.03
72892;BME280;61032;50.782;6.818;2023-02-01T04:02:31;100942.91;;;6.63;74.18
72892;BME280;61032;50.782;6.818;2023-02-01T04:03:31;100944.91;;;6.58;74.65
72892;BME280;61032;50.782;6.818;2023-02-01T04:04:33;100945.13;;;6.61;73.98
72892;BME280;61032;50.782;6.818;2023-02-01T04:05:34;100932.56;;;6.60;73.83
72892;BME280;61032;50.782;6.818;2023-02-01T04:06:34;100940.19;;;6.63;74.21
72892;BME280;61032;50.782;6.818;2023-02-01T04:07:35;100936.94;;;6.61;74.05
72892;BME280;61032;50.782;6.818;2023-02-01T04:08:35;100940.75;;;6.60;73.53
72892;BME280;61032;50.782;6.818;2023-02-01T04:09:35;100941.50;;;6.66;73.71
72892;BME280;61032;50.782;6.818;2023-02-01T04:10:36;100944.75;;;6.68;73.11
72892;BME280;61032;50.782;6.818;2023-02-01T04:11:36;100941.72;;;6.69;73.34
72892;BME280;61032;50.782;6.818;2023-02-01T04:12:36;100948.88;;;6.65;73.14
72892;BME280;61032;50.782;6.818;2023-02-01T04:13:37;100944.53;;;6.64;73.59
72892;BME280;61032;50.782;6.818;2023-02-01T04:14:37;100943.41;;;6.65;73.77
72892;BME280;61032;50.782;6.818;2023-02-01T04:15:38;100946.97;;;6.66;73.16
72892;BME280;61032;50.782;6.818;2023-02-01T04:16:38;100938.84;;;6.61;73.40
72892;BME280;61032;50.782;6.818;2023-02-01T04:17:38;100938.28;;;6.64;73.36
72892;BME280;61032;50.782;6.818;2023-02-01T04:18:39;100941.72;;;6.69;73.46
72892;BME280;61032;50.782;6.818;2023-02-01T04:19:39;100938.84;;;6.61;73.18
72892;BME280;61032;50.782;6.818;2023-02-01T04:20:40;100941.16;;;6.48;73.91
72892;BME280;61032;50.782;6.818;2023-02-01T04:21:40;100930.00;;;6.45;73.81
72892;BME280;61032;50.782;6.818;2023-02-01T04:22:40;100943.63;;;6.50;74.30
72892;BME280;61032;50.782;6.818;2023-02-01T04:23:41;100951.03;;;6.44;74.21
72892;BME280;61032;50.782;6.818;2023-02-01T04:24:41;100948.03;;;6.46;74.06
72892;BME280;61032;50.782;6.818;2023-02-01T04:25:41;100946.41;;;6.45;74.41
72892;BME280;61032;50.782;6.818;2023-02-01T04:26:41;100947.28;;;6.40;74.20
72892;BME280;61032;50.782;6.818;2023-02-01T04:27:43;100948.41;;;6.39;74.23
72892;BME280;61032;50.782;6.818;2023-02-01T04:28:43;100948.63;;;6.43;74.04
72892;BME280;61032;50.782;6.818;2023-02-01T04:29:44;100953.50;;;6.46;73.94
72892;BME280;61032;50.782;6.818;2023-02-01T04:30:45;100949.38;;;6.48;73.55
72892;BME280;61032;50.782;6.818;2023-02-01T04:31:46;100948.03;;;6.46;73.31
72892;BME280;61032;50.782;6.818;2023-02-01T04:32:46;100957.41;;;6.40;73.36
72892;BME280;61032;50.782;6.818;2023-02-01T04:33:46;100948.03;;;6.46;73.59
72892;BME280;61032;50.782;6.818;2023-02-01T04:34:47;100953.19;;;6.47;73.03
72892;BME280;61032;50.782;6.818;2023-02-01T04:35:47;100952.47;;;6.42;73.43
72892;BME280;61032;50.782;6.818;2023-02-01T04:36:48;100951.19;;;6.34;74.15
72892;BME280;61032;50.782;6.818;2023-02-01T04:37:48;100961.75;;;6.41;73.36
72892;BME280;61032;50.782;6.818;2023-02-01T04:38:51;100949.69;;;6.23;74.10
72892;BME280;61032;50.782;6.818;2023-02-01T04:39:53;100952.91;;;6.25;74.21
72892;BME280;61032;50.782;6.818;2023-02-01T04:40:54;100946.75;;;6.14;74.65
72892;BME280;61032;50.782;6.818;2023-02-01T04:41:59;100944.31;;;6.13;74.71
72892;BME280;61032;50.782;6.818;2023-02-01T04:43:02;100951.06;;;6.20;74.81
72892;BME280;61032;50.782;6.818;2023-02-01T04:44:03;100951.69;;;6.12;74.22
72892;BME280;61032;50.782;6.818;2023-02-01T04:45:18;100940.72;;;6.17;74.40
72892;BME280;61032;50.782;6.818;2023-02-01T04:46:18;100942.94;;;6.15;74.07
72892;BME280;61032;50.782;6.818;2023-02-01T04:47:22;100942.34;;;6.18;74.26
72892;BME280;61032;50.782;6.818;2023-02-01T04:48:22;100939.69;;;6.13;74.03
72892;BME280;61032;50.782;6.818;2023-02-01T04:49:23;100947.25;;;6.22;73.95
72892;BME280;61032;50.782;6.818;2023-02-01T04:50:25;100951.19;;;6.34;74.10
72892;BME280;61032;50.782;6.818;2023-02-01T04:51:26;100941.13;;;6.30;74.35
72892;BME280;61032;50.782;6.818;2023-02-01T04:52:26;100942.47;;;6.32;74.10
72892;BME280;61032;50.782;6.818;2023-02-01T04:53:31;100945.25;;;6.27;73.72
72892;BME280;61032;50.782;6.818;2023-02-01T04:54:32;100948.09;;;6.17;73.83
72892;BME280;61032;50.782;6.818;2023-02-01T04:55:33;100945.00;;;6.24;74.92
72892;BME280;61032;50.782;6.818;2023-02-01T04:56:33;100939.34;;;6.20;74.36
72892;BME280;61032;50.782;6.818;2023-02-01T04:57:37;100938.53;;;6.19;74.18
72892;BME280;61032;50.782;6.818;2023-02-01T04:58:38;100942.59;;;6.22;74.03
72892;BME280;61032;50.782;6.818;2023-02-01T04:59:39;100946.13;;;6.23;73.68
72892;BME280;61032;50.782;6.818;2023-02-01T05:00:39;100939.34;;;6.20;74.28
72892;BME280;61032;50.782;6.818;2023-02-01T05:01:40;100940.31;;;6.29;73.92
72892;BME280;61032;50.782;6.818;2023-02-01T05:02:40;100931.97;;;6.20;73.05
72892;BME280;61032;50.782;6.818;2023-02-01T05:03:40;100933.16;;;6.09;74.03
72892;BME280;61032;50.782;6.818;2023-02-01T05:04:41;100933.69;;;6.11;74.36
72892;BME280;61032;50.782;6.818;2023-02-01T05:05:41;100937.56;;;6.05;74.10
72892;BME280;61032;50.782;6.818;2023-02-01T05:06:41;100931.72;;;6.17;74.46
72892;BME280;61032;50.782;6.818;2023-02-01T05:07:41;100916.22;;;6.12;74.09
72892;BME280;61032;50.782;6.818;2023-02-01T05:08:42;100928.22;;;6.11;73.74
72892;BME280;61032;50.782;6.818;2023-02-01T05:09:42;100922.59;;;6.03;73.62
72892;BME280;61032;50.782;6.818;2023-02-01T05:10:44;100919.34;;;6.01;74.36
72892;BME280;61032;50.782;6.818;2023-02-01T05:11:44;100923.41;;;6.03;74.08
72892;BME280;61032;50.782;6.818;2023-02-01T05:13:03;100926.59;;;6.10;73.59
72892;BME280;61032;50.782;6.818;2023-02-01T05:14:22;100917.72;;;6.00;73.75
72892;BME280;61032;50.782;6.818;2023-02-01T05:15:23;100904.72;;;5.86;73.66
72892;BME280;61032;50.782;6.818;2023-02-01T05:16:23;100901.44;;;5.90;73.88
72892;BME280;61032;50.782;6.818;2023-02-01T05:17:24;100904.13;;;5.95;74.03
72892;BME280;61032;50.782;6.818;2023-02-01T05:18:24;100905.44;;;6.02;73.20
72892;BME280;61032;50.782;6.818;2023-02-01T05:19:24;100915.84;;;5.95;73.92
72892;BME280;61032;50.782;6.818;2023-02-01T05:20:24;100906.91;;;5.90;73.95
72892;BME280;61032;50.782;6.818;2023-02-01T05:21:25;100911.56;;;5.84;74.32
72892;BME280;61032;50.782;6.818;2023-02-01T05:22:25;100914.81;;;5.91;73.76
72892;BME280;61032;50.782;6.818;2023-02-01T05:23:25;100919.44;;;5.91;73.96
72892;BME280;61032;50.782;6.818;2023-02-01T05:24:26;100914.81;;;5.86;73.89
72892;BME280;61032;50.782;6.818;2023-02-01T05:25:27;100917.53;;;5.91;74.10
72892;BME280;61032;50.782;6.818;2023-02-01T05:26:27;100918.06;;;5.93;73.62
72892;BME280;61032;50.782;6.818;2023-02-01T05:27:29;100917.00;;;5.89;73.85
72892;BME280;61032;50.782;6.818;2023-02-01T05:28:30;100916.28;;;5.78;73.73
72892;BME280;61032;50.782;6.818;2023-02-01T05:29:30;100917.31;;;5.82;73.81
72892;BME280;61032;50.782;6.818;2023-02-01T05:30:32;100925.72;;;5.86;73.88
72892;BME280;61032;50.782;6.818;2023-02-01T05:31:35;100926.31;;;5.83;73.64
72892;BME280;61032;50.782;6.818;2023-02-01T05:32:36;100933.38;;;5.84;74.31
72892;BME280;61032;50.782;6.818;2023-02-01T05:33:36;100933.66;;;5.82;74.21
72892;BME280;61032;50.782;6.818;2023-02-01T05:34:36;100938.91;;;5.79;74.30
72892;BME280;61032;50.782;6.818;2023-02-01T05:35:37;100936.78;;;5.71;74.25
72892;BME280;61032;50.782;6.818;2023-02-01T05:36:37;100937.09;;;5.69;74.46
72892;BME280;61032;50.782;6.818;2023-02-01T05:37:37;100931.91;;;5.68;75.04
72892;BME280;61032;50.782;6.818;2023-02-01T05:38:38;100934.03;;;5.76;73.91
72892;BME280;61032;50.782;6.818;2023-02-01T05:39:38;100934.56;;;5.78;73.64
72892;BME280;61032;50.782;6.818;2023-02-01T05:40:38;100935.66;;;5.77;74.39
72892;BME280;61032;50.782;6.818;2023-02-01T05:41:39;100930.94;;;5.82;73.56
72892;BME280;61032;50.782;6.818;2023-02-01T05:42:39;100930.13;;;5.82;73.57
72892;BME280;61032;50.782;6.818;2023-02-01T05:43:43;100933.91;;;5.86;74.01
72892;BME280;61032;50.782;6.818;2023-02-01T05:44:44;100923.88;;;5.81;73.72
72892;BME280;61032;50.782;6.818;2023-02-01T05:45:44;100933.50;;;5.74;74.08
72892;BME280;61032;50.782;6.818;2023-02-01T05:46:45;100936.75;;;5.76;73.99
72892;BME280;61032;50.782;6.818;2023-02-01T05:47:45;100931.88;;;5.73;74.00
72892;BME280;61032;50.782;6.818;2023-02-01T05:48:45;100932.16;;;5.71;74.12
72892;BME280;61032;50.782;6.818;2023-02-01T05:49:46;100929.91;;;5.78;73.73
72892;BME280;61032;50.782;6.818;2023-02-01T05:50:46;100929.16;;;5.73;73.71
72892;BME280;61032;50.782;6.818;2023-02-01T05:51:46;100931.88;;;5.73;73.69
72892;BME280;61032;50.782;6.818;2023-02-01T05:52:47;100919.34;;;5.72;74.13
72892;BME280;61032;50.782;6.818;2023-02-01T05:53:47;100927.50;;;5.72;74.30
72892;BME280;61032;50.782;6.818;2023-02-01T05:54:48;100928.81;;;5.79;73.92
72892;BME280;61032;50.782;6.818;2023-02-01T05:55:48;100927.19;;;5.78;73.57
72892;BME280;61032;50.782;6.818;2023-02-01T05:56:49;100926.38;;;5.78;73.61
72892;BME280;61032;50.782;6.818;2023-02-01T05:57:49;100929.09;;;5.78;73.55
72892;BME280;61032;50.782;6.818;2023-02-01T05:58:49;100921.50;;;5.75;73.71
72892;BME280;61032;50.782;6.818;2023-02-01T05:59:50;100930.03;;;5.63;73.64
72892;BME280;61032;50.782;6.818;2023-02-01T06:00:50;100933.78;;;5.72;74.06
72892;BME280;61032;50.782;6.818;2023-02-01T06:01:50;100933.00;;;5.67;73.87
72892;BME280;61032;50.782;6.818;2023-02-01T06:02:51;100930.31;;;5.62;73.53
72892;BME280;61032;50.782;6.818;2023-02-01T06:03:51;100928.66;;;5.66;74.11
72892;BME280;61032;50.782;6.818;2023-02-01T06:04:51;100925.63;;;5.67;74.23
72892;BME280;61032;50.782;6.818;2023-02-01T06:05:52;100921.53;;;5.70;74.47
72892;BME280;61032;50.782;6.818;2023-02-01T06:06:52;100923.69;;;5.73;73.64
72892;BME280;61032;50.782;6.818;2023-02-01T06:07:52;100925.34;;;5.69;73.86
72892;BME280;61032;50.782;6.818;2023-02-01T06:08:53;100924.53;;;5.68;73.91
72892;BME280;61032;50.782;6.818;2023-02-01T06:09:53;100921.81;;;5.68;73.88
72892;BME280;61032;50.782;6.818;2023-02-01T06:11:12;100906.25;;;5.69;74.67
72892;BME280;61032;50.782;6.818;2023-02-01T06:12:13;100918.81;;;5.70;73.75
72892;BME280;61032;50.782;6.818;2023-02-01T06:13:13;100912.66;;;5.83;73.62